Check out our new PWSWeather beta!
PWSweather.com
Personal Weather Stations
Station Observations

CarnateIT

Lat: 45.6521, Lon: 9.37218

Elevation: 782

Station Type: Davis Vantage VUE

http://brianzameteo.altervista.org

Latest ConditionsUpdated 2:45:02 PM GMT+01:01 Wednesday, Feb 26, 2020
Currently Today's Max Today's Min Today's Average
Temperature 53.6°F12.0°C 54.5°F12.5°C 36.3°F2.4°C 46.0°F7.8°C
Dew Point 11.1°F-11.6°C 46.2°F7.9°C 11.1°F-11.6°C 35.8°F2.1°C
Winds 3.0 mph N4.8 kmh N 4.0 mph -6.4 kmh - - 0.6 mph 1.0 kmh
Wind Gusts 9.0 mph14.5 kmh 9.0 mph14.5 kmh - -
Humidity 18% 94% 18% 74%
Pressure 29.47 in998.0 mb 29.58 in1001.7 mb 29.44 in997.0 mb -
Hour Temp Dew Point Humidity Winds Wind Gusts Pressure Precip Precip Rate Daily Precip Total
02:45 PM 53.6°F12.0°C 11.1°F-11.6°C 18% 3.0 mph N4.8 kmh N 9.0 mph14.5 kmh 29.47 in998.0 mb 0.00 in0.0 mm 0.00 in0.0 mm 0.00 in0.0 mm
02:30 PM 53.1°F11.7°C 11.8°F-11.2°C 19% 3.0 mph N4.8 kmh N 8.0 mph12.9 kmh 29.46 in997.6 mb 0.00 in0.0 mm 0.00 in0.0 mm 0.00 in0.0 mm
02:15 PM 52.9°F11.6°C 18.0°F-7.8°C 25% 2.0 mph N3.2 kmh N 6.0 mph9.7 kmh 29.46 in997.6 mb 0.00 in0.0 mm 0.00 in0.0 mm 0.00 in0.0 mm
02:00 PM 52.5°F11.4°C 18.5°F-7.5°C 26% 3.0 mph N4.8 kmh N 8.0 mph12.9 kmh 29.46 in997.6 mb 0.00 in0.0 mm 0.00 in0.0 mm 0.00 in0.0 mm
01:45 PM 51.6°F10.9°C 17.8°F-7.9°C 26% 3.0 mph N4.8 kmh N 8.0 mph12.9 kmh 29.46 in997.6 mb 0.00 in0.0 mm 0.00 in0.0 mm 0.00 in0.0 mm
01:30 PM 52.7°F11.5°C 22.1°F-5.5°C 30% 4.0 mph N6.4 kmh N 9.0 mph14.5 kmh 29.46 in997.6 mb 0.00 in0.0 mm 0.00 in0.0 mm 0.00 in0.0 mm
01:15 PM 53.4°F11.9°C 25.0°F-3.9°C 33% 1.0 mph N1.6 kmh N 3.0 mph4.8 kmh 29.45 in997.3 mb 0.00 in0.0 mm 0.00 in0.0 mm 0.00 in0.0 mm
01:00 PM 53.6°F12.0°C 22.8°F-5.1°C 30% 1.0 mph N1.6 kmh N 5.0 mph8.0 kmh 29.45 in997.3 mb 0.00 in0.0 mm 0.00 in0.0 mm 0.00 in0.0 mm
12:45 PM 53.8°F12.1°C 22.3°F-5.4°C 29% 1.0 mph N1.6 kmh N 7.0 mph11.3 kmh 29.45 in997.3 mb 0.00 in0.0 mm 0.00 in0.0 mm 0.00 in0.0 mm
12:30 PM 53.8°F12.1°C 22.3°F-5.4°C 29% 1.0 mph N1.6 kmh N 5.0 mph8.0 kmh 29.45 in997.3 mb 0.00 in0.0 mm 0.00 in0.0 mm 0.00 in0.0 mm
12:15 PM 54.1°F12.3°C 24.1°F-4.4°C 31% 2.0 mph N3.2 kmh N 7.0 mph11.3 kmh 29.45 in997.3 mb 0.00 in0.0 mm 0.00 in0.0 mm 0.00 in0.0 mm
12:00 PM 54.5°F12.5°C 25.9°F-3.4°C 33% 2.0 mph N3.2 kmh N 9.0 mph14.5 kmh 29.45 in997.3 mb 0.00 in0.0 mm 0.00 in0.0 mm 0.00 in0.0 mm
11:45 AM 54.1°F12.3°C 35.4°F1.9°C 49% 1.0 mph N1.6 kmh N 7.0 mph11.3 kmh 29.44 in997.0 mb 0.00 in0.0 mm 0.00 in0.0 mm 0.00 in0.0 mm
11:30 AM 54.3°F12.4°C 35.6°F2.0°C 49% 1.0 mph N1.6 kmh N 7.0 mph11.3 kmh 29.44 in997.0 mb 0.00 in0.0 mm 0.00 in0.0 mm 0.00 in0.0 mm
11:15 AM 54.0°F12.2°C 34.7°F1.5°C 48% 1.0 mph N1.6 kmh N 7.0 mph11.3 kmh 29.44 in997.0 mb 0.00 in0.0 mm 0.00 in0.0 mm 0.00 in0.0 mm
11:00 AM 53.2°F11.8°C 37.9°F3.3°C 56% 1.0 mph N1.6 kmh N 3.0 mph4.8 kmh 29.45 in997.3 mb 0.00 in0.0 mm 0.00 in0.0 mm 0.00 in0.0 mm
10:45 AM 53.4°F11.9°C 40.5°F4.7°C 61% 1.0 mph N1.6 kmh N 4.0 mph6.4 kmh 29.45 in997.3 mb 0.00 in0.0 mm 0.00 in0.0 mm 0.00 in0.0 mm
10:30 AM 53.1°F11.7°C 39.6°F4.2°C 60% Calm Calm 4.0 mph6.4 kmh 29.45 in997.3 mb 0.00 in0.0 mm 0.00 in0.0 mm 0.00 in0.0 mm
10:15 AM 51.4°F10.8°C 42.8°F6.0°C 72% Calm Calm 2.0 mph3.2 kmh 29.45 in997.3 mb 0.00 in0.0 mm 0.00 in0.0 mm 0.00 in0.0 mm
10:00 AM 50.2°F10.1°C 43.3°F6.3°C 77% Calm Calm 4.0 mph6.4 kmh 29.46 in997.6 mb 0.00 in0.0 mm 0.00 in0.0 mm 0.00 in0.0 mm
09:45 AM 49.6°F9.8°C 43.7°F6.5°C 80% 1.0 mph N1.6 kmh N 4.0 mph6.4 kmh 29.47 in998.0 mb 0.00 in0.0 mm 0.00 in0.0 mm 0.00 in0.0 mm
09:30 AM 50.2°F10.1°C 44.2°F6.8°C 80% 1.0 mph N1.6 kmh N 3.0 mph4.8 kmh 29.47 in998.0 mb 0.00 in0.0 mm 0.00 in0.0 mm 0.00 in0.0 mm
09:15 AM 50.5°F10.3°C 44.6°F7.0°C 80% Calm Calm 1.0 mph1.6 kmh 29.46 in997.6 mb 0.00 in0.0 mm 0.00 in0.0 mm 0.00 in0.0 mm
09:00 AM 49.8°F9.9°C 46.2°F7.9°C 87% Calm Calm 1.0 mph1.6 kmh 29.46 in997.6 mb 0.00 in0.0 mm 0.00 in0.0 mm 0.00 in0.0 mm
08:45 AM 46.2°F7.9°C 44.4°F6.9°C 93% Calm Calm 1.0 mph1.6 kmh 29.46 in997.6 mb 0.00 in0.0 mm 0.00 in0.0 mm 0.00 in0.0 mm
08:30 AM 44.2°F6.8°C 42.6°F5.9°C 94% Calm Calm 1.0 mph1.6 kmh 29.47 in998.0 mb 0.00 in0.0 mm 0.00 in0.0 mm 0.00 in0.0 mm
08:15 AM 42.1°F5.6°C 40.1°F4.5°C 93% Calm Calm -- 29.48 in998.3 mb 0.00 in0.0 mm 0.00 in0.0 mm 0.00 in0.0 mm
08:00 AM 40.8°F4.9°C 39.4°F4.1°C 94% Calm Calm -- 29.48 in998.3 mb 0.00 in0.0 mm 0.00 in0.0 mm 0.00 in0.0 mm
07:45 AM 40.8°F4.9°C 39.2°F4.0°C 94% Calm Calm 1.0 mph1.6 kmh 29.47 in998.0 mb 0.00 in0.0 mm 0.00 in0.0 mm 0.00 in0.0 mm
07:30 AM 39.9°F4.4°C 38.3°F3.5°C 94% Calm Calm 1.0 mph1.6 kmh 29.47 in998.0 mb 0.00 in0.0 mm 0.00 in0.0 mm 0.00 in0.0 mm
07:15 AM 39.6°F4.2°C 37.9°F3.3°C 94% Calm Calm -- 29.47 in998.0 mb 0.00 in0.0 mm 0.00 in0.0 mm 0.00 in0.0 mm
07:00 AM 39.6°F4.2°C 37.9°F3.3°C 94% Calm Calm 1.0 mph1.6 kmh 29.47 in998.0 mb 0.00 in0.0 mm 0.00 in0.0 mm 0.00 in0.0 mm
06:45 AM 38.5°F3.6°C 36.5°F2.5°C 93% Calm Calm -- 29.46 in997.6 mb 0.00 in0.0 mm 0.00 in0.0 mm 0.00 in0.0 mm
06:30 AM 37.0°F2.8°C 35.2°F1.8°C 93% Calm Calm -- 29.46 in997.6 mb 0.00 in0.0 mm 0.00 in0.0 mm 0.00 in0.0 mm
06:15 AM 36.3°F2.4°C 34.2°F1.2°C 92% Calm Calm -- 29.46 in997.6 mb 0.00 in0.0 mm 0.00 in0.0 mm 0.00 in0.0 mm
06:00 AM 37.4°F3.0°C 35.6°F2.0°C 93% Calm Calm -- 29.46 in997.6 mb 0.00 in0.0 mm 0.00 in0.0 mm 0.00 in0.0 mm
05:45 AM 37.8°F3.2°C 36.0°F2.2°C 93% Calm Calm -- 29.46 in997.6 mb 0.00 in0.0 mm 0.00 in0.0 mm 0.00 in0.0 mm
05:30 AM 37.2°F2.9°C 35.2°F1.8°C 92% Calm Calm -- 29.46 in997.6 mb 0.00 in0.0 mm 0.00 in0.0 mm 0.00 in0.0 mm
05:15 AM 38.8°F3.8°C 36.7°F2.6°C 92% Calm Calm -- 29.46 in997.6 mb 0.00 in0.0 mm 0.00 in0.0 mm 0.00 in0.0 mm
05:00 AM 38.8°F3.8°C 36.7°F2.6°C 92% Calm Calm -- 29.47 in998.0 mb 0.00 in0.0 mm 0.00 in0.0 mm 0.00 in0.0 mm
04:45 AM 39.4°F4.1°C 37.2°F2.9°C 92% Calm Calm -- 29.48 in998.3 mb 0.00 in0.0 mm 0.00 in0.0 mm 0.00 in0.0 mm
04:30 AM 39.6°F4.2°C 37.4°F3.0°C 92% Calm Calm -- 29.48 in998.3 mb 0.00 in0.0 mm 0.00 in0.0 mm 0.00 in0.0 mm
04:15 AM 41.5°F5.3°C 39.6°F4.2°C 93% Calm Calm -- 29.48 in998.3 mb 0.00 in0.0 mm 0.00 in0.0 mm 0.00 in0.0 mm
04:00 AM 41.5°F5.3°C 39.7°F4.3°C 93% Calm Calm -- 29.49 in998.6 mb 0.00 in0.0 mm 0.00 in0.0 mm 0.00 in0.0 mm
03:45 AM 40.8°F4.9°C 38.8°F3.8°C 92% Calm Calm -- 29.48 in998.3 mb 0.00 in0.0 mm 0.00 in0.0 mm 0.00 in0.0 mm
03:30 AM 42.4°F5.8°C 40.3°F4.6°C 92% Calm Calm -- 29.50 in999.0 mb 0.00 in0.0 mm 0.00 in0.0 mm 0.00 in0.0 mm
03:15 AM 43.2°F6.2°C 41.0°F5.0°C 92% Calm Calm -- 29.51 in999.3 mb 0.00 in0.0 mm 0.00 in0.0 mm 0.00 in0.0 mm
03:00 AM 43.3°F6.3°C 41.2°F5.1°C 92% Calm Calm -- 29.52 in999.7 mb 0.00 in0.0 mm 0.00 in0.0 mm 0.00 in0.0 mm
02:45 AM 43.2°F6.2°C 41.0°F5.0°C 92% Calm Calm -- 29.52 in999.7 mb 0.00 in0.0 mm 0.00 in0.0 mm 0.00 in0.0 mm
02:30 AM 43.2°F6.2°C 41.0°F5.0°C 92% Calm Calm -- 29.53 in1000.0 mb 0.00 in0.0 mm 0.00 in0.0 mm 0.00 in0.0 mm
02:15 AM 42.8°F6.0°C 40.6°F4.8°C 92% Calm Calm -- 29.53 in1000.0 mb 0.00 in0.0 mm 0.00 in0.0 mm 0.00 in0.0 mm
02:00 AM 42.4°F5.8°C 39.9°F4.4°C 91% Calm Calm 1.0 mph1.6 kmh 29.53 in1000.0 mb 0.00 in0.0 mm 0.00 in0.0 mm 0.00 in0.0 mm
01:45 AM 43.7°F6.5°C 41.2°F5.1°C 91% Calm Calm -- 29.54 in1000.3 mb 0.00 in0.0 mm 0.00 in0.0 mm 0.00 in0.0 mm
01:30 AM 44.2°F6.8°C 41.7°F5.4°C 91% Calm Calm -- 29.54 in1000.3 mb 0.00 in0.0 mm 0.00 in0.0 mm 0.00 in0.0 mm
01:15 AM 44.6°F7.0°C 42.1°F5.6°C 91% Calm Calm -- 29.55 in1000.7 mb 0.00 in0.0 mm 0.00 in0.0 mm 0.00 in0.0 mm
01:00 AM 44.8°F7.1°C 42.3°F5.7°C 91% Calm Calm -- 29.56 in1001.0 mb 0.00 in0.0 mm 0.00 in0.0 mm 0.00 in0.0 mm
12:45 AM 45.0°F7.2°C 42.6°F5.9°C 91% Calm Calm -- 29.56 in1001.0 mb 0.00 in0.0 mm 0.00 in0.0 mm 0.00 in0.0 mm
12:30 AM 44.8°F7.1°C 42.3°F5.7°C 91% Calm Calm -- 29.57 in1001.4 mb 0.00 in0.0 mm 0.00 in0.0 mm 0.00 in0.0 mm
12:15 AM 44.6°F7.0°C 42.1°F5.6°C 91% Calm Calm -- 29.58 in1001.7 mb 0.00 in0.0 mm 0.00 in0.0 mm 0.00 in0.0 mm
12:00 AM 45.0°F7.2°C 42.6°F5.9°C 91% Calm Calm -- 29.58 in1001.7 mb 0.00 in0.0 mm 0.00 in0.0 mm 0.00 in0.0 mm